Tiempo atmosférico en la estación meteorológica de Leciñena, Zaragoza (405 m.)



Fecha
DESCASC
Temp. máxima en grados centígrados (hora)
DESCASC
Temp. mínima en grados centígrados (hora)
DESCASC
Temp. media en grados centígrados
DESCASC
Racha de viento máxima en m/sg (hora)
DESCASC
Velocidad máxima media en intervalos de 10 minutos(hora)
DESCASC
Precipitaciones diarias en mm
DESCASC
Precipitaciones de 00:00 a 06:00 en mm
DESCASC
Precipitaciones de 06:00 a 12:00 en mm
DESCASC
Precipitaciones de 12:00 a 18:00 en mm
DESCASC
Precipitaciones de 18:00 a 24:00 en mm
DESCASC
23-05-2020 28.3 (15:20) 13.9 (23:50) 21.1 12.22 (03:20) 6.67 (03:10) 0 0 0 0 0
22-05-2020 33.8 (17:20) 14 (03:20) 23.9 8.89 (19:20) 5.56 (19:50) 0 0 0 0 0
21-05-2020 31.1 (17:40) 9.8 (00:00) 20.5 5.28 (13:40) 2.78 (18:30) 0 0 0 0 0
20-05-2020 29.9 (16:50) 9.4 (00:00) 19.6 5.83 (18:30) 3.33 (17:20) 0 0 0 0 0
19-05-2020 28.7 (16:10) 7.8 (06:00) 18.3 8.06 (18:00) 5 (18:00) 0 0 0 0 0
18-05-2020 26.3 (17:20) 5.9 (00:00) 16.1 8.06 (18:40) 4.72 (19:00) 0 0 0 0 0
17-05-2020 23.7 (16:30) 6 (00:00) 14.9 9.17 (17:50) 5.28 (18:00) 0 0 0 0 0
16-05-2020 21.4 (15:30) 9.6 (00:00) 15.5 10.83 (16:20) 5.28 (16:30) 1.6 0.4 0.6 0.2 0.4
15-05-2020 20 (17:00) 10.5 (06:50) 15.3 6.11 (19:10) 3.89 (19:00) 4.6 4 0.6 0 0
14-05-2020 17.9 (12:40) 8.2 (00:00) 13 6.67 (15:10) 4.17 (15:00) 9.2 0 0 5.6 3.6
13-05-2020 20.1 (18:30) 8.4 (00:00) 14.3 10.56 (01:00) 5.56 (01:00) 1.4 1.2 0.2 0 0
12-05-2020 20 (13:50) 7 (06:30) 13.5 7.5 (23:50) 5 (08:10) 0.6 0 0 0.4 0.2
11-05-2020 22.8 (16:40) 10.2 (00:00) 16.5 13.61 (15:20) 7.22 (15:20) 0.2 0 0.2 0 0
10-05-2020 16.6 (00:00) 12.6 (00:00) 14.6 13.33 (03:30) 7.78 (02:50) 26.2 1.6 5.8 14 4.8
09-05-2020 26.9 (14:40) 13 (07:50) 19.9 12.22 (20:20) 6.94 (17:50) 0.2 0 0.2 0 0
08-05-2020 27.3 (18:20) 15.3 (00:00) 21.3 10.83 (06:10) 6.67 (16:40) 0 0 0 0 0
07-05-2020 28.7 (15:20) 10.4 (00:00) 19.6 11.94 (17:40) 6.94 (17:50) 0 0 0 0 0
06-05-2020 28.5 (15:40) 7.9 (00:00) 18.2 8.89 (15:40) 3.61 (15:50) 0 0 0 0 0
05-05-2020 27.6 (16:10) 12.2 (00:00) 19.9 7.78 (13:20) 4.17 (12:20) 0 0 0 0 0
04-05-2020 28.8 (15:10) 15.2 (00:00) 22 18.33 (21:20) 9.72 (21:10) 0 0 0 0 0
03-05-2020 29 (18:30) 9.4 (06:50) 19.2 9.17 (15:50) 4.44 (21:20) 0 0 0 0 0
02-05-2020 26.3 (16:00) 11.6 (07:50) 18.9 8.89 (17:50) 4.72 (19:50) 0 0 0 0 0
01-05-2020 25.9 (15:50) 10.3 (00:00) 18.1 12.22 (10:20) 8.33 (12:10) 0.4 0 0 0 0.4
30-04-2020 22.1 (15:10) 11.5 (00:50) 16.8 12.5 (14:00) 7.22 (14:10) 0 0 0 0 0
29-04-2020 22.6 (17:20) 5.4 (00:00) 14 8.89 (15:10) 4.72 (21:30) 0 0 0 0 0
28-04-2020 20.5 (15:20) 6.6 (05:50) 13.5 11.67 (17:10) 5.83 (17:10) 0 0 0 0 0
27-04-2020 22.6 (16:00) 11.1 (00:00) 16.9 8.89 (17:50) 5.28 (16:00) 2.6 0 1.8 0 0.8

Gráficas

Temp. máximas Temp. mínimas Temp. medias Precipitaciones Rachas de viento máximas Velocidades máximas media en intervalos de 10 minutos

Datos horarios

Fecha y hora oficial Temperatura (ºC) Velocidad del viento (km/h) Dirección del viento Racha (km/h) Dirección de racha Precipitación (mm) Presión (hPa) Tendencia (hPa) Humedad (%)
2020-05-26 23:00:00 19.1 3 Sudoeste 12 Sur 0 -- -- 74
2020-05-26 22:00:00 20.9 4 Sur 12 Noroeste 0 -- -- 69
2020-05-26 21:00:00 23.8 8 Noroeste 22 Noroeste 0 -- -- 57
2020-05-26 20:00:00 26.1 12 Noroeste 21 Noroeste 0 -- -- 52
2020-05-26 19:00:00 27.7 8 Norte 21 Noroeste 0 -- -- 48
2020-05-26 18:00:00 26.4 7 Oeste 19 Oeste 0 -- -- 50
2020-05-26 17:00:00 28 6 Sudoeste 18 Sur 0 -- -- 46
2020-05-26 16:00:00 26.7 10 Oeste 20 Norte 0 -- -- 52
2020-05-26 15:00:00 25.8 10 Oeste 17 Oeste 0 -- -- 55
2020-05-26 14:00:00 24.4 9 Norte 19 Oeste 0 -- -- 55
2020-05-26 13:00:00 25.3 7 Oeste 15 Noroeste 0 -- -- 53
2020-05-26 12:00:00 23.5 6 Noroeste 15 Norte 0 -- -- 60
2020-05-26 11:00:00 21.2 6 Nordeste 12 Nordeste 0 -- -- 64
2020-05-26 10:00:00 19.3 7 Norte 12 Norte 0 -- -- 70
2020-05-26 09:00:00 17.3 6 Norte 13 Norte 0 -- -- 75
2020-05-26 08:00:00 16.1 6 Nordeste 11 Nordeste 0 -- -- 76
2020-05-26 07:00:00 15.4 5 Nordeste 13 Nordeste 0 -- -- 81
2020-05-26 06:00:00 15.8 3 Oeste 4 Oeste 0 -- -- 88
2020-05-26 05:00:00 16.2 2 Sur 9 Sudoeste 0 -- -- 84
2020-05-26 04:00:00 16 4 Sudoeste 10 Sudoeste 0 -- -- 88
2020-05-26 03:00:00 17.1 5 Sudoeste 10 Sur 0 -- -- 85
2020-05-26 02:00:00 17.7 6 Sudoeste 16 Sudoeste 0 -- -- 85
2020-05-26 01:00:00 18.6 3 Sudoeste 8 Sudoeste 0 -- -- 92
2020-05-26 00:00:00 18.3 4 Sudoeste 6 Sudoeste 0 -- -- 92
2020-05-25 23:00:00 18.8 5 Sudoeste 6 Sudoeste 0 -- -- 89
2020-05-25 22:00:00 19.4 4 Sudoeste 5 Sudoeste 0 -- -- 87
2020-05-25 21:00:00 20.4 0 Calma 17 Noroeste 0 -- -- 80
2020-05-25 20:00:00 20.9 10 Oeste 20 Noroeste 0 -- -- 80
2020-05-25 19:00:00 23.1 5 Oeste 12 Oeste 0 -- -- 68
2020-05-25 18:00:00 24 5 Oeste 13 Oeste 0 -- -- 67
2020-05-25 17:00:00 22.5 8 Noroeste 15 Noroeste 0 -- -- 73
2020-05-25 16:00:00 24 5 Sudeste 12 Sudeste 0 -- -- 67
2020-05-25 15:00:00 22.5 4 Oeste 9 Oeste 0 -- -- 68
2020-05-25 14:00:00 21.6 4 Nordeste 8 Nordeste 0.2 -- -- 83
2020-05-25 13:00:00 20 2 Noroeste 8 Norte 0.2 -- -- 80
2020-05-25 12:00:00 18.8 4 Nordeste 7 Este 0 -- -- 86
2020-05-25 11:00:00 17.2 2 Oeste 12 Oeste 0.2 -- -- 93
2020-05-25 10:00:00 16 4 Oeste 11 Sudoeste 11 -- -- 92
2020-05-25 09:00:00 18 5 Sudoeste 14 Sudoeste 0 -- -- 78
2020-05-25 08:00:00 17.7 7 Sudoeste 14 Sur 0 -- -- 81
2020-05-25 07:00:00 17.1 3 Sudoeste 12 Sudeste 0 -- -- 84
2020-05-25 06:00:00 17.7 9 Sudeste 14 Sur 0 -- -- 82
2020-05-25 05:00:00 17.8 8 Sur 17 Sur 0 -- -- 82
2020-05-25 04:00:00 18.5 6 Este 14 Sudeste 0 -- -- 79
2020-05-25 03:00:00 18.9 3 Este 6 Sur 0 -- -- 76
2020-05-25 02:00:00 18.8 0 Calma 10 Oeste 0 -- -- 76
2020-05-25 01:00:00 19.9 5 Sur 12 Sudoeste 0 -- -- 70
2020-05-25 00:00:00 17.9 2 Sudoeste 7 Sudoeste 0 -- -- 74
2020-05-24 23:00:00 18.4 3 Sur 10 Sur 0 -- -- 72
2020-05-24 22:00:00 20 4 Sudoeste 9 Sur 0 -- -- 66
2020-05-24 21:00:00 23.5 3 Norte 9 Nordeste 0 -- -- 52
2020-05-24 20:00:00 24.8 5 Noroeste 13 Noroeste 0 -- -- 51
2020-05-24 19:00:00 26.4 2 Norte 14 Norte 0 -- -- 45
2020-05-24 18:00:00 25.7 7 Nordeste 21 Nordeste 0 -- -- 45
2020-05-24 17:00:00 26.3 4 Sur 16 Norte 0 -- -- 44
2020-05-24 16:00:00 25.8 11 Norte 31 Nordeste 0 -- -- 48
2020-05-24 15:00:00 24.4 7 Norte 19 Noroeste 0 -- -- 48
2020-05-24 14:00:00 24.1 5 Norte 17 Oeste 0 -- -- 47
2020-05-24 13:00:00 21.6 5 Norte 17 Oeste 0 -- -- 56
2020-05-24 12:00:00 20.1 4 Noroeste 11 Norte 0 -- -- 58
2020-05-24 11:00:00 17.6 3 Este 10 Norte 0 -- -- 62
2020-05-24 10:00:00 15.7 5 Nordeste 9 Norte 0 -- -- 68
2020-05-24 09:00:00 13.7 0 Calma 4 Nordeste 0 -- -- 76
2020-05-24 08:00:00 11.5 0 Calma 4 Oeste 0 -- -- 88
2020-05-24 07:00:00 9.9 2 Sudoeste 6 Sudoeste 0 -- -- 88
2020-05-24 06:00:00 10.9 0 Calma 10 Nordeste 0 -- -- 87
2020-05-24 05:00:00 12.6 6 Este 14 Nordeste 0 -- -- 78
2020-05-24 04:00:00 12.7 4 Nordeste 9 Oeste 0 -- -- 78
2020-05-24 03:00:00 12.7 3 Sudoeste 10 Sudoeste 0 -- -- 81
2020-05-24 02:00:00 12 3 Noroeste 5 Oeste 0 -- -- 83
2020-05-24 01:00:00 13 3 Norte 11 Norte 0 -- -- 80
2020-05-24 00:00:00 14 3 Nordeste 9 Norte 0 -- -- 78
2020-05-23 23:00:00 14.9 7 Norte 17 Norte 0 -- -- 74
2020-05-23 22:00:00 17 6 Norte 23 Noroeste 0 -- -- 68
2020-05-23 21:00:00 19.7 12 Norte 31 Noroeste 0 -- -- 60
2020-05-23 20:00:00 22.8 13 Norte 31 Norte 0 -- -- 54
2020-05-23 19:00:00 24.9 19 Norte 34 Norte 0 -- -- 49
2020-05-23 18:00:00 26.8 18 Norte 32 Noroeste 0 -- -- 46
2020-05-23 17:00:00 27.6 13 Norte 32 Nordeste 0 -- -- 46
2020-05-23 16:00:00 28.1 18 Norte 33 Norte 0 -- -- 48
2020-05-23 15:00:00 27.3 16 Norte 33 Noroeste 0 -- -- 50
2020-05-23 14:00:00 26.4 15 Norte 27 Norte 0 -- -- 52
2020-05-23 13:00:00 26.8 12 Norte 27 Nordeste 0 -- -- 52
2020-05-23 12:00:00 25.4 10 Norte 21 Norte 0 -- -- 57
2020-05-23 11:00:00 23.2 9 Norte 19 Nordeste 0 -- -- 62
2020-05-23 10:00:00 21 9 Nordeste 20 Norte 0 -- -- 67
2020-05-23 09:00:00 19.5 3 Nordeste 10 Norte 0 -- -- 71
2020-05-23 08:00:00 18.9 0 Calma 8 Sudoeste 0 -- -- 77
2020-05-23 07:00:00 16.5 5 Sur 10 Sur 0 -- -- 81
2020-05-23 06:00:00 18.1 7 Sur 23 Sur 0 -- -- 74
2020-05-23 05:00:00 20.8 12 Sudoeste 36 Sudeste 0 -- -- 57
2020-05-23 04:00:00 21.1 21 Sudeste 44 Sudeste 0 -- -- 56
2020-05-23 03:00:00 20.6 24 Sudeste 42 Sudeste 0 -- -- 65
2020-05-23 02:00:00 20.9 16 Sudeste 24 Sudeste 0 -- -- 66
2020-05-23 01:00:00 23.4 7 Sudeste 17 Sudeste 0 -- -- 53
2020-05-23 00:00:00 25.6 12 Sur 23 Sudoeste 0 -- -- 41
2020-05-22 23:00:00 26.5 13 Sur 25 Sur 0 -- -- 42
2020-05-22 22:00:00 26.9 15 Sur 30 Sur 0 -- -- 34
2020-05-22 21:00:00 28.4 10 Sur 32 Sudeste 0 -- -- 43
2020-05-22 20:00:00 30.7 19 Sur 32 Sudeste 0 -- -- 39
2020-05-22 19:00:00 33 8 Sudeste 23 Sur 0 -- -- 35
2020-05-22 18:00:00 33.7 6 Sudoeste 17 Oeste 0 -- -- 24
2020-05-22 17:00:00 33.2 6 Sur 22 Sudoeste 0 -- -- 28
2020-05-22 16:00:00 33.1 10 Noroeste 24 Oeste 0 -- -- 33
2020-05-22 15:00:00 32.8 6 Oeste 15 Oeste 0 -- -- 34
2020-05-22 14:00:00 31.3 6 Sur 14 Sur 0 -- -- 34
2020-05-22 13:00:00 30.3 5 Oeste 15 Oeste 0 -- -- 43
2020-05-22 12:00:00 28.4 6 Noroeste 17 Noroeste 0 -- -- 49
2020-05-22 11:00:00 27.2 8 Noroeste 16 Oeste 0 -- -- 52
2020-05-22 10:00:00 25.3 3 Nordeste 6 Sudeste 0 -- -- 52
2020-05-22 09:00:00 22.2 0 Calma 6 Sudoeste 0 -- -- 63
2020-05-22 08:00:00 18.1 0 Calma 2 Sudeste 0 -- -- 79
2020-05-22 07:00:00 14.5 0 Calma 9 Sudoeste 0 -- -- 86
2020-05-22 06:00:00 15 6 Sudoeste 8 Sudoeste 0 -- -- 82
2020-05-22 05:00:00 14.2 3 Sudoeste 6 Sur 0 -- -- 86
2020-05-22 04:00:00 14.9 4 Sudoeste 6 Sudoeste 0 -- -- 84
2020-05-22 03:00:00 15.1 2 Sur 5 Sur 0 -- -- 82
2020-05-22 02:00:00 16.8 2 Sudoeste 7 Sudoeste 0 -- -- 77
2020-05-22 01:00:00 16.9 4 Sudoeste 6 Sur 0 -- -- 77
2020-05-22 00:00:00 18.2 4 Sur 12 Sudoeste 0 -- -- 73
2020-05-21 23:00:00 19.1 4 Sudoeste 13 Sudoeste 0 -- -- 70
2020-05-21 22:00:00 20 4 Sudoeste 7 Sur 0 -- -- 66
2020-05-21 21:00:00 26 0 Calma 6 Norte 0 -- -- 48
2020-05-21 20:00:00 29.7 5 Norte 15 Norte 0 -- -- 35
2020-05-21 19:00:00 30.4 6 Nordeste 17 Norte 0 -- -- 31
2020-05-21 18:00:00 30.6 8 Nordeste 15 Nordeste 0 -- -- 30
2020-05-21 17:00:00 30.7 6 Este 15 Noroeste 0 -- -- 28
2020-05-21 16:00:00 30.1 4 Este 18 Noroeste 0 -- -- 33
2020-05-21 15:00:00 29.1 6 Norte 17 Oeste 0 -- -- 36
2020-05-21 14:00:00 28.9 8 Noroeste 19 Oeste 0 -- -- 40
2020-05-21 13:00:00 26.7 7 Norte 16 Norte 0 -- -- 44
2020-05-21 12:00:00 24.7 7 Nordeste 13 Nordeste 0 -- -- 46
2020-05-21 11:00:00 23.4 6 Norte 12 Norte 0 -- -- 51
2020-05-21 10:00:00 21 3 Sudeste 8 Nordeste 0 -- -- 55
2020-05-21 09:00:00 18.6 5 Nordeste 9 Nordeste 0 -- -- 64
2020-05-21 08:00:00 14 0 Calma 8 Sur 0 -- -- 89
2020-05-21 07:00:00 9.8 0 Calma 4 Sudoeste 0 -- -- 91
2020-05-21 06:00:00 10.8 2 Sudoeste 4 Sudoeste 0 -- -- 91
2020-05-21 05:00:00 12.2 2 Sur 9 Sudoeste 0 -- -- 87
2020-05-21 04:00:00 13.2 5 Sur 10 Sur 0 -- -- 88
2020-05-21 03:00:00 13.2 6 Sudoeste 11 Sudoeste 0 -- -- 84
2020-05-21 02:00:00 14.2 4 Sur 10 Sudoeste 0 -- -- 80
2020-05-21 01:00:00 14.1 3 Sudoeste 9 Sur 0 -- -- 79
2020-05-21 00:00:00 15.4 5 Sudoeste 10 Sudoeste 0 -- -- 76
2020-05-20 23:00:00 16 2 Sur 9 Sur 0 -- -- 73
2020-05-20 22:00:00 21.1 6 Sudoeste 13 Oeste 0 -- -- 51
2020-05-20 21:00:00 24.1 9 Oeste 16 Noroeste 0 -- -- 43
2020-05-20 20:00:00 28.1 10 Noroeste 17 Noroeste 0 -- -- 38
2020-05-20 19:00:00 29.2 9 Oeste 21 Noroeste 0 -- -- 37
2020-05-20 18:00:00 29.7 9 Noroeste 18 Norte 0 -- -- 39
2020-05-20 17:00:00 29.5 10 Norte 20 Noroeste 0 -- -- 33
2020-05-20 16:00:00 29.2 8 Norte 19 Norte 0 -- -- 40
2020-05-20 15:00:00 28.3 6 Nordeste 17 Nordeste 0 -- -- 41
2020-05-20 14:00:00 27.6 8 Norte 20 Noroeste 0 -- -- 44
2020-05-20 13:00:00 25.7 7 Norte 19 Noroeste 0 -- -- 46
2020-05-20 12:00:00 24 4 Norte 14 Norte 0 -- -- 50
2020-05-20 11:00:00 21.6 6 Nordeste 13 Nordeste 0 -- -- 57
2020-05-20 10:00:00 19.4 4 Nordeste 8 Nordeste 0 -- -- 63
2020-05-20 09:00:00 16.9 4 Nordeste 7 Nordeste 0 -- -- 72
2020-05-20 08:00:00 12.6 0 Calma 6 Sudoeste 0 -- -- 92
2020-05-20 07:00:00 9.6 4 Sudoeste 6 Sudoeste 0 -- -- 94
2020-05-20 06:00:00 10.2 4 Sur 6 Sur 0 -- -- 95
2020-05-20 05:00:00 10.7 0 Calma 8 Sudoeste 0 -- -- 91
2020-05-20 04:00:00 11.6 5 Sudoeste 10 Sudoeste 0 -- -- 91
2020-05-20 03:00:00 12.9 6 Sur 8 Sur 0 -- -- 86
2020-05-20 02:00:00 13.8 6 Sudoeste 10 Sudoeste 0 -- -- 85
2020-05-20 01:00:00 14.8 6 Sudoeste 11 Sur 0 -- -- 85
2020-05-20 00:00:00 15.6 6 Sudoeste 9 Sudoeste 0 -- -- 82
2020-05-19 23:00:00 16.7 4 Sudoeste 8 Sudoeste 0 -- -- 77
2020-05-19 22:00:00 18.7 4 Sudoeste 6 Norte 0 -- -- 70
2020-05-19 21:00:00 22.8 5 Norte 21 Noroeste 0 -- -- 56
2020-05-19 20:00:00 25.8 13 Norte 22 Noroeste 0 -- -- 47
2020-05-19 19:00:00 27.3 16 Norte 29 Noroeste 0 -- -- 41
2020-05-19 18:00:00 28.3 18 Noroeste 29 Noroeste 0 -- -- 38
2020-05-19 17:00:00 28.6 12 Noroeste 23 Noroeste 0 -- -- 37
2020-05-19 16:00:00 28.3 7 Noroeste 23 Norte 0 -- -- 37
2020-05-19 15:00:00 26.8 13 Noroeste 23 Noroeste 0 -- -- 42
2020-05-19 14:00:00 26 9 Norte 24 Norte 0 -- -- 41
2020-05-19 13:00:00 23.9 12 Norte 21 Norte 0 -- -- 46
2020-05-19 12:00:00 22.2 9 Noroeste 21 Norte 0 -- -- 50
2020-05-19 11:00:00 20.2 10 Noroeste 20 Noroeste 0 -- -- 56
2020-05-19 10:00:00 17.9 5 Noroeste 14 Oeste 0 -- -- 62
2020-05-19 09:00:00 15.3 3 Sudoeste 5 Sudoeste 0 -- -- 70
2020-05-19 08:00:00 11.4 0 Calma 8 Sur 0 -- -- 91
2020-05-19 07:00:00 8 6 Sudoeste 8 Sur 0 -- -- 94
2020-05-19 06:00:00 7.8 0 Calma 5 Sudoeste 0 -- -- 93
2020-05-19 05:00:00 9.1 3 Sur 7 Sur 0 -- -- 93
2020-05-19 04:00:00 9.6 5 Sur 8 Sudoeste 0 -- -- 93
2020-05-19 03:00:00 10.3 4 Sudoeste 8 Sudoeste 0 -- -- 91
2020-05-19 02:00:00 11.1 4 Sur 9 Sudoeste 0 -- -- 91
2020-05-19 01:00:00 11.7 4 Sur 8 Sudoeste 0 -- -- 89
2020-05-19 00:00:00 12.3 0 Calma 4 Sur 0 -- -- 84
2020-05-18 23:00:00 14.7 4 Norte 11 Nordeste 0 -- -- 77
2020-05-18 22:00:00 16.7 0 Calma 14 Noroeste 0 -- -- 67
2020-05-18 21:00:00 20.3 9 Norte 22 Norte 0 -- -- 55
2020-05-18 20:00:00 23.6 15 Noroeste 28 Noroeste 0 -- -- 47
2020-05-18 19:00:00 24.9 17 Norte 29 Norte 0 -- -- 42
2020-05-18 18:00:00 26.2 10 Norte 28 Noroeste 0 -- -- 39
2020-05-18 17:00:00 26 12 Norte 26 Oeste 0 -- -- 38
2020-05-18 16:00:00 25.5 14 Noroeste 24 Noroeste 0 -- -- 39
2020-05-18 15:00:00 24.9 9 Noroeste 21 Noroeste 0 -- -- 44
2020-05-18 14:00:00 23.3 11 Norte 20 Norte 0 -- -- 43
2020-05-18 13:00:00 21.9 8 Noroeste 16 Norte 0 -- -- 50
2020-05-18 12:00:00 20.7 6 Norte 15 Noroeste 0 -- -- 52
2020-05-18 11:00:00 18.4 4 Norte 11 Norte 0 -- -- 55
2020-05-18 10:00:00 15.2 6 Nordeste 14 Nordeste 0 -- -- 68
2020-05-18 09:00:00 13.2 4 Nordeste 9 Este 0 -- -- 75
2020-05-18 08:00:00 9.4 0 Calma 6 Sur 0 -- -- 95
2020-05-18 07:00:00 6.2 5 Sudoeste 8 Sudoeste 0 -- -- 96
2020-05-18 06:00:00 6.5 2 Sur 6 Sudoeste 0 -- -- 94
2020-05-18 05:00:00 7.4 5 Sur 8 Sudoeste 0 -- -- 95
2020-05-18 04:00:00 8 4 Sudoeste 8 Sudoeste 0 -- -- 91
2020-05-18 03:00:00 9.8 5 Sur 9 Sur 0 -- -- 88
2020-05-18 02:00:00 10.2 3 Sur 7 Oeste 0 -- -- 89
2020-05-18 01:00:00 11.4 3 Sur 14 Noroeste 0 -- -- 85
2020-05-18 00:00:00 13.1 11 Noroeste 21 Noroeste 0 -- -- 77
2020-05-17 23:00:00 12.9 8 Noroeste 14 Noroeste 0 -- -- 78
2020-05-17 22:00:00 14.8 10 Noroeste 22 Norte 0 -- -- 72
2020-05-17 21:00:00 18.1 13 Norte 25 Norte 0 -- -- 60
2020-05-17 20:00:00 21.1 14 Norte 28 Norte 0 -- -- 47
2020-05-17 19:00:00 22.6 16 Norte 30 Norte 0 -- -- 43
2020-05-17 18:00:00 23.2 19 Noroeste 33 Noroeste 0 -- -- 43
2020-05-17 17:00:00 23.3 17 Noroeste 30 Noroeste 0 -- -- 42
2020-05-17 16:00:00 23.1 14 Norte 27 Noroeste 0 -- -- 45
2020-05-17 15:00:00 22.8 10 Norte 24 Noroeste 0 -- -- 47
2020-05-17 14:00:00 21.8 13 Noroeste 23 Noroeste 0 -- -- 51
2020-05-17 13:00:00 20.4 13 Norte 25 Norte 0 -- -- 53
2020-05-17 12:00:00 19.1 12 Noroeste 24 Noroeste 0 -- -- 59
2020-05-17 11:00:00 17.2 6 Noroeste 17 Noroeste 0 -- -- 62
2020-05-17 10:00:00 14.7 5 Noroeste 10 Norte 0 -- -- 69
2020-05-17 09:00:00 12.1 3 Oeste 6 Sudoeste 0 -- -- 78
2020-05-17 08:00:00 9 0 Calma 6 Sudoeste 0 -- -- 95
2020-05-17 07:00:00 6.3 3 Sudoeste 6 Sudoeste 0 -- -- 96
2020-05-17 06:00:00 7.7 4 Sudoeste 8 Sudoeste 0 -- -- 96
2020-05-17 05:00:00 8.4 0 Calma 5 Sudoeste 0 -- -- 95
2020-05-17 04:00:00 7.5 4 Sudoeste 6 Sudoeste 0 -- -- 95
2020-05-17 03:00:00 8 3 Sudoeste 9 Sudoeste 0 -- -- 95
2020-05-17 02:00:00 8.3 0 Calma 6 Sudoeste 0 -- -- 93
2020-05-17 01:00:00 9 3 Sur 7 Sudoeste 0 -- -- 92
2020-05-17 00:00:00 9.6 2 Sudoeste 5 Sudoeste 0 -- -- 89
2020-05-16 23:00:00 11.8 3 Sudoeste 10 Noroeste 0 -- -- 83
2020-05-16 22:00:00 13.8 2 Oeste 10 Norte 0 -- -- 73
2020-05-16 21:00:00 16.4 4 Norte 15 Norte 0 -- -- 66
2020-05-16 20:00:00 17.3 4 Sudeste 10 Sudeste 0 -- -- 73
2020-05-16 19:00:00 16.2 2 Sudoeste 8 Este 0.4 -- -- 80
2020-05-16 18:00:00 15.5 9 Este 25 Nordeste 0.2 -- -- 84
2020-05-16 17:00:00 18.4 14 Norte 39 Norte 0 -- -- 65
2020-05-16 16:00:00 20.1 13 Norte 24 Norte 0 -- -- 61
2020-05-16 15:00:00 19.4 10 Noroeste 23 Noroeste 0 -- -- 63
2020-05-16 14:00:00 18.2 9 Noroeste 23 Noroeste 0 -- -- 71
2020-05-16 13:00:00 16.6 10 Norte 23 Norte 0 -- -- 77
2020-05-16 12:00:00 14.9 8 Norte 14 Noroeste 0 -- -- 82
2020-05-16 11:00:00 12.8 4 Nordeste 13 Norte 0 -- -- 86
2020-05-16 10:00:00 12 9 Norte 14 Norte 0.4 -- -- 91
2020-05-16 09:00:00 11.1 3 Norte 5 Nordeste 0 -- -- 91
2020-05-16 08:00:00 10.5 2 Nordeste 5 Norte 0 -- -- 93
2020-05-16 07:00:00 10.4 0 Calma 5 Nordeste 0.2 -- -- 93
2020-05-16 06:00:00 10.4 2 Este 5 Sudeste 0 -- -- 89
2020-05-16 05:00:00 10.1 0 Calma 9 Nordeste 0 -- -- 92
2020-05-16 04:00:00 10.2 3 Nordeste 9 Nordeste 0 -- -- 93
2020-05-16 03:00:00 10.7 6 Norte 10 Norte 0 -- -- 92
2020-05-16 02:00:00 11.1 2 Noroeste 5 Norte 0 -- -- 96
2020-05-16 01:00:00 11.4 0 Calma 10 Noroeste 0.4 -- -- 95
2020-05-16 00:00:00 12 3 Noroeste 10 Noroeste 0 -- -- 93
2020-05-15 23:00:00 12.8 5 Norte 10 Noroeste 0 -- -- 90
2020-05-15 22:00:00 13.4 4 Noroeste 13 Norte 0 -- -- 87
2020-05-15 21:00:00 14.6 7 Norte 19 Norte 0 -- -- 81
2020-05-15 20:00:00 16.4 12 Norte 22 Noroeste 0 -- -- 73
2020-05-15 19:00:00 17.7 14 Norte 21 Noroeste 0 -- -- 70
2020-05-15 18:00:00 17.8 11 Norte 20 Noroeste 0 -- -- 70
2020-05-15 17:00:00 20 8 Norte 15 Norte 0 -- -- 63
2020-05-15 16:00:00 18.8 6 Noroeste 13 Norte 0 -- -- 64
2020-05-15 15:00:00 17.4 4 Noroeste 12 Norte 0 -- -- 71
2020-05-15 14:00:00 16 6 Nordeste 18 Norte 0 -- -- 77
2020-05-15 13:00:00 15.1 10 Norte 19 Nordeste 0 -- -- 81
2020-05-15 12:00:00 14.4 10 Norte 19 Norte 0 -- -- 86
2020-05-15 11:00:00 13.2 10 Norte 17 Norte 0 -- -- 89
2020-05-15 10:00:00 12.8 9 Noroeste 16 Noroeste 0 -- -- 90
2020-05-15 09:00:00 11.9 7 Noroeste 13 Noroeste 0 -- -- 95
2020-05-15 08:00:00 10.7 8 Noroeste 14 Noroeste 0 -- -- 98
2020-05-15 07:00:00 10.5 7 Noroeste 19 Oeste 0.6 -- -- 98
2020-05-15 06:00:00 10.6 13 Noroeste 20 Noroeste 0.4 -- -- 98
2020-05-15 05:00:00 10.7 12 Noroeste 17 Noroeste 0.6 -- -- 98
2020-05-15 04:00:00 10.9 9 Noroeste 16 Noroeste 0.8 -- -- 98
2020-05-15 03:00:00 11.2 6 Norte 18 Norte 1 -- -- 97
2020-05-15 02:00:00 11.7 2 Noroeste 4 Noroeste 0.8 -- -- 98
2020-05-15 01:00:00 11.9 2 Oeste 8 Noroeste 0.4 -- -- 98
2020-05-15 00:00:00 11.9 4 Noroeste 11 Noroeste 0.4 -- -- 97
2020-05-14 23:00:00 12 6 Noroeste 9 Noroeste 0.2 -- -- 97
2020-05-14 22:00:00 12 2 Noroeste 8 Norte 0.2 -- -- 97
2020-05-14 21:00:00 12 3 Noroeste 6 Noroeste 0.8 -- -- 96
2020-05-14 20:00:00 12.3 4 Norte 10 Norte 1.2 -- -- 96
2020-05-14 19:00:00 12.5 6 Oeste 18 Oeste 0.8 -- -- 96
2020-05-14 18:00:00 13.6 10 Oeste 21 Sudoeste 1.2 -- -- 92
2020-05-14 17:00:00 13.5 10 Sudoeste 19 Sudoeste 3.8 -- -- 93
2020-05-14 16:00:00 14.3 11 Sudoeste 24 Oeste 0.6 -- -- 90
2020-05-14 15:00:00 16.2 15 Oeste 23 Oeste 0 -- -- 79
2020-05-14 14:00:00 15.1 9 Sudoeste 21 Sudoeste 0 -- -- 89
2020-05-14 13:00:00 17.6 5 Noroeste 14 Oeste 0 -- -- 72
2020-05-14 12:00:00 16.8 9 Noroeste 13 Noroeste 0 -- -- 78
2020-05-14 11:00:00 16.2 6 Sur 15 Sudeste 0 -- -- 70
2020-05-14 10:00:00 15.3 5 Oeste 23 Sudeste 0 -- -- 76
2020-05-14 09:00:00 14.8 11 Sudeste 22 Sudeste 0 -- -- 78
2020-05-14 08:00:00 11.2 2 Este 4 Oeste 0 -- -- 94
2020-05-14 07:00:00 10.1 3 Sur 6 Sur 0 -- -- 94
2020-05-14 06:00:00 9 3 Sudoeste 10 Sudoeste 0 -- -- 95
2020-05-14 05:00:00 8.7 0 Calma 4 Sudoeste 0 -- -- 95
2020-05-14 04:00:00 9.3 0 Calma 4 Norte 0 -- -- 93
2020-05-14 03:00:00 10.1 3 Norte 13 Sudoeste 0 -- -- 92
2020-05-14 02:00:00 11.3 2 Oeste 6 Sudoeste 0 -- -- 89
2020-05-14 01:00:00 11.1 2 Oeste 5 Sudoeste 0 -- -- 90
2020-05-14 00:00:00 11 2 Sudoeste 10 Este 0 -- -- 90
2020-05-13 23:00:00 13.8 3 Este 10 Sur 0 -- -- 80
2020-05-13 22:00:00 12.8 7 Sur 9 Sudoeste 0 -- -- 82
2020-05-13 21:00:00 17.2 3 Oeste 10 Norte 0 -- -- 65
2020-05-13 20:00:00 18.9 6 Norte 13 Norte 0 -- -- 55
2020-05-13 19:00:00 19.5 9 Norte 19 Nordeste 0 -- -- 54
2020-05-13 18:00:00 19.7 5 Norte 17 Norte 0 -- -- 56
2020-05-13 17:00:00 18.6 10 Norte 20 Norte 0 -- -- 59
2020-05-13 16:00:00 19.5 8 Norte 15 Nordeste 0 -- -- 59
2020-05-13 15:00:00 17.4 2 Nordeste 13 Sudeste 0 -- -- 64
2020-05-13 14:00:00 18.5 7 Sur 20 Noroeste 0 -- -- 58
2020-05-13 13:00:00 15.4 9 Noroeste 15 Oeste 0 -- -- 71
2020-05-13 12:00:00 18.2 6 Norte 15 Norte 0.2 -- -- 59
2020-05-13 11:00:00 15.6 8 Noroeste 20 Oeste 0 -- -- 72
2020-05-13 10:00:00 15.1 9 Oeste 16 Oeste 0 -- -- 72
2020-05-13 09:00:00 14.8 7 Oeste 12 Oeste 0 -- -- 76
2020-05-13 08:00:00 11.7 0 Calma 4 Sudoeste 0 -- -- 88
2020-05-13 07:00:00 9.9 0 Calma 6 Sudoeste 0 -- -- 94
2020-05-13 06:00:00 8.4 4 Sudoeste 6 Sudoeste 0 -- -- 93
2020-05-13 05:00:00 9.8 3 Sur 6 Sur 0 -- -- 92
2020-05-13 04:00:00 10.9 4 Sudoeste 9 Sudoeste 0 -- -- 91
2020-05-13 03:00:00 11.1 4 Sur 6 Sudeste 0 -- -- 91
2020-05-13 02:00:00 11.5 5 Sudeste 36 Sudoeste 1.2 -- -- 90
2020-05-13 01:00:00 14.8 20 Sur 38 Sur 0 -- -- 85
2020-05-13 00:00:00 15.2 13 Sur 27 Sur 0 -- -- 81
2020-05-12 23:00:00 14.8 4 Sudeste 13 Sudeste 0.2 -- -- 91
2020-05-12 22:00:00 14.7 2 Nordeste 10 Este 0 -- -- 92
2020-05-12 21:00:00 15.2 0 Calma 9 Oeste 0 -- -- 89
2020-05-12 20:00:00 16.2 6 Sudoeste 19 Sudoeste 0 -- -- 81
2020-05-12 19:00:00 17.1 5 Oeste 13 Oeste 0 -- -- 79
2020-05-12 18:00:00 16.6 8 Oeste 12 Oeste 0 -- -- 80
2020-05-12 17:00:00 17.8 4 Sudoeste 8 Oeste 0 -- -- 75
2020-05-12 16:00:00 17 2 Este 17 Noroeste 0.4 -- -- 83
2020-05-12 15:00:00 18 5 Noroeste 14 Noroeste 0 -- -- 67
2020-05-12 14:00:00 19.4 6 Norte 11 Este 0 -- -- 61
2020-05-12 13:00:00 19.2 5 Norte 12 Norte 0 -- -- 60
2020-05-12 12:00:00 18.7 4 Noroeste 18 Nordeste 0 -- -- 59
2020-05-12 11:00:00 16.3 12 Nordeste 19 Este 0 -- -- 67
2020-05-12 10:00:00 15.1 6 Nordeste 12 Nordeste 0 -- -- 75
2020-05-12 09:00:00 12.6 7 Norte 26 Noroeste 0 -- -- 90
2020-05-12 08:00:00 11.1 17 Oeste 25 Noroeste 0 -- -- 95
2020-05-12 07:00:00 7.3 7 Sudoeste 12 Sudoeste 0 -- -- 97
2020-05-12 06:00:00 7.5 2 Sudoeste 5 Sur 0 -- -- 95
2020-05-12 05:00:00 8.6 4 Sur 9 Sur 0 -- -- 95
2020-05-12 04:00:00 9.9 0 Calma 6 Sur 0 -- -- 90
2020-05-12 03:00:00 9.8 4 Sur 9 Sudoeste 0 -- -- 94
2020-05-12 02:00:00 10.9 2 Sur 9 Sudoeste 0 -- -- 92
2020-05-12 01:00:00 11.8 4 Sudoeste 6 Sudoeste 0 -- -- 88
2020-05-12 00:00:00 13 2 Nordeste 17 Norte 0 -- -- 83
2020-05-11 23:00:00 14.7 6 Noroeste 10 Noroeste 0 -- -- 85
2020-05-11 22:00:00 15.1 2 Sudoeste 5 Sur 0 -- -- 84
2020-05-11 21:00:00 15.6 5 Oeste 33 Oeste 0 -- -- 79
2020-05-11 20:00:00 19.5 12 Norte 26 Nordeste 0 -- -- 55
2020-05-11 19:00:00 22 15 Nordeste 29 Norte 0 -- -- 47
2020-05-11 18:00:00 22.3 18 Norte 38 Norte 0 -- -- 48
2020-05-11 17:00:00 22.4 18 Norte 34 Norte 0 -- -- 45
2020-05-11 16:00:00 22 20 Norte 49 Norte 0 -- -- 52
2020-05-11 15:00:00 21.6 22 Norte 36 Noroeste 0 -- -- 54
2020-05-11 14:00:00 20.5 22 Norte 35 Norte 0 -- -- 55
2020-05-11 13:00:00 19.4 20 Norte 35 Norte 0 -- -- 60
2020-05-11 12:00:00 19.1 16 Noroeste 31 Noroeste 0 -- -- 64
2020-05-11 11:00:00 17.6 15 Noroeste 30 Norte 0 -- -- 68
2020-05-11 10:00:00 15.5 13 Noroeste 22 Noroeste 0 -- -- 76
2020-05-11 09:00:00 14.4 11 Noroeste 23 Noroeste 0 -- -- 82
2020-05-11 08:00:00 13.1 11 Noroeste 21 Noroeste 0 -- -- 84
2020-05-11 07:00:00 11.2 10 Noroeste 18 Noroeste 0.2 -- -- 90
2020-05-11 06:00:00 10.8 0 Calma 23 Norte 0 -- -- 90
2020-05-11 05:00:00 12 12 Norte 33 Norte 0 -- -- 86
2020-05-11 04:00:00 12.2 13 Norte 23 Norte 0 -- -- 88
2020-05-11 03:00:00 12.5 11 Norte 21 Norte 0 -- -- 90
2020-05-11 02:00:00 12.3 8 Noroeste 15 Noroeste 0 -- -- 91
2020-05-11 01:00:00 12.4 8 Norte 23 Norte 0 -- -- 91
2020-05-11 00:00:00 12.6 13 Norte 23 Norte 0 -- -- 90
2020-05-10 23:00:00 12.8 9 Norte 23 Norte 0 -- -- 93
2020-05-10 22:00:00 12.7 10 Norte 19 Noroeste 0 -- -- 95
2020-05-10 21:00:00 12.8 9 Noroeste 24 Noroeste 1 -- -- 94
2020-05-10 20:00:00 12.9 15 Noroeste 26 Noroeste 2.4 -- -- 94
2020-05-10 19:00:00 13.2 13 Noroeste 22 Noroeste 1.4 -- -- 95
2020-05-10 18:00:00 13.2 10 Oeste 25 Noroeste 0.8 -- -- 95
2020-05-10 17:00:00 14.6 9 Noroeste 16 Noroeste 0 -- -- 90
2020-05-10 16:00:00 15 7 Norte 12 Norte 0.2 -- -- 87
2020-05-10 15:00:00 13.9 2 Norte 14 Norte 1.8 -- -- 91
2020-05-10 14:00:00 13.2 6 Norte 14 Norte 11.2 -- -- 95
2020-05-10 13:00:00 14.4 2 Sudoeste 19 Sudeste 0 -- -- 90
2020-05-10 12:00:00 14.3 7 Sur 14 Sudeste 0.2 -- -- 88
2020-05-10 11:00:00 14.3 5 Sur 19 Sudeste 1 -- -- 88
2020-05-10 10:00:00 14.5 8 Sur 15 Sudoeste 0.8 -- -- 87
2020-05-10 09:00:00 14.7 9 Sudoeste 18 Sudoeste 0.8 -- -- 95
2020-05-10 08:00:00 15 8 Sudoeste 21 Sudoeste 1 -- -- 95
2020-05-10 07:00:00 14.9 3 Sudoeste 21 Sur 2 -- -- 95
2020-05-10 06:00:00 15.3 12 Sur 22 Sur 0.4 -- -- 93
2020-05-10 05:00:00 15 2 Oeste 36 Sur 1 -- -- 93
2020-05-10 04:00:00 15.6 20 Sur 48 Sudeste 0.2 -- -- 90
2020-05-10 03:00:00 15.9 22 Sudeste 44 Sudeste 0 -- -- 86
2020-05-10 02:00:00 16 24 Sudeste 46 Sudeste 0 -- -- 85
2020-05-10 01:00:00 16.2 21 Sudeste 39 Sur 0 -- -- 84
2020-05-10 00:00:00 16.6 12 Sudeste 37 Sudeste 0 -- -- 82
2020-05-09 23:00:00 17.3 24 Sudeste 41 Sudeste 0 -- -- 79
2020-05-09 22:00:00 18.3 19 Sur 35 Sur 0 -- -- 74
2020-05-09 21:00:00 18.9 12 Sudeste 44 Sudeste 0 -- -- 73
2020-05-09 20:00:00 20.9 11 Sudeste 35 Sudeste 0 -- -- 65
2020-05-09 19:00:00 21.5 15 Sur 40 Sur 0 -- -- 61
2020-05-09 18:00:00 22.5 25 Sudeste 43 Sur 0 -- -- 54
2020-05-09 17:00:00 21.9 18 Sur 32 Sur 0 -- -- 58
2020-05-09 16:00:00 23.7 19 Sudeste 36 Sudeste 0 -- -- 42
2020-05-09 15:00:00 26 15 Sur 27 Sur 0 -- -- 36
2020-05-09 14:00:00 25.6 13 Sur 30 Sudoeste 0 -- -- 39
2020-05-09 13:00:00 24.3 15 Sudoeste 28 Sudoeste 0 -- -- 45
2020-05-09 12:00:00 23.1 14 Sudoeste 31 Sur 0 -- -- 45
2020-05-09 11:00:00 21.1 11 Sur 25 Sur 0 -- -- 37
2020-05-09 10:00:00 16.9 5 Sur 19 Este 0 -- -- 67
2020-05-09 09:00:00 15.1 9 Noroeste 25 Sur 0 -- -- 79
2020-05-09 08:00:00 13.6 11 Sudeste 19 Este 0.2 -- -- 81
2020-05-09 07:00:00 13.9 7 Sur 20 Noroeste 0 -- -- 75
2020-05-09 06:00:00 15.1 8 Sudeste 21 Norte 0 -- -- 56
2020-05-09 05:00:00 16.2 2 Norte 26 Sur 0 -- -- 47
2020-05-09 04:00:00 16.3 14 Sur 41 Sur 0 -- -- 54
2020-05-09 03:00:00 16.5 9 Sur 26 Este 0 -- -- 57
2020-05-09 02:00:00 16.4 9 Sur 24 Sur 0 -- -- 62
2020-05-09 01:00:00 16.7 6 Sudeste 27 Este 0 -- -- 58
2020-05-09 00:00:00 17.9 12 Sudeste 33 Sur 0 -- -- 53
2020-05-08 23:00:00 18.5 13 Sudeste 28 Sudeste 0 -- -- 54
2020-05-08 22:00:00 20.8 11 Sur 24 Sudeste 0 -- -- 40
2020-05-08 21:00:00 22.5 14 Sur 35 Sur 0 -- -- 35
2020-05-08 20:00:00 24.5 18 Sur 39 Sudeste 0 -- -- 35
2020-05-08 19:00:00 26.3 20 Sur 37 Sudeste 0 -- -- 30
2020-05-08 18:00:00 26.9 24 Sudeste 38 Sudeste 0 -- -- 30
2020-05-08 17:00:00 27 19 Sudeste 36 Sudeste 0 -- -- 34
2020-05-08 16:00:00 26.4 18 Sudeste 34 Sudeste 0 -- -- 39
2020-05-08 15:00:00 25.3 17 Sudeste 28 Sur 0 -- -- 42
2020-05-08 14:00:00 24.5 14 Sudeste 27 Sudeste 0 -- -- 48
2020-05-08 13:00:00 23.1 16 Sudeste 27 Sur 0 -- -- 45
2020-05-08 12:00:00 23.8 13 Sudeste 27 Este 0 -- -- 44
2020-05-08 11:00:00 22.9 17 Sudeste 28 Sudeste 0 -- -- 42
2020-05-08 10:00:00 20.4 6 Oeste 13 Oeste 0 -- -- 55
2020-05-08 09:00:00 15.9 2 Oeste 13 Oeste 0 -- -- 69
2020-05-08 08:00:00 16.2 6 Oeste 19 Sur 0 -- -- 66
2020-05-08 07:00:00 15.5 14 Sur 39 Sudeste 0 -- -- 69
2020-05-08 06:00:00 15.8 17 Sudeste 37 Sudeste 0 -- -- 68
2020-05-08 05:00:00 16.4 21 Sudeste 37 Sudeste 0 -- -- 64
2020-05-08 04:00:00 17.2 17 Sudeste 34 Sudeste 0 -- -- 57
2020-05-08 03:00:00 16.7 19 Sur 36 Sudeste 0 -- -- 61
2020-05-08 02:00:00 17 21 Sur 35 Sudeste 0 -- -- 59
2020-05-08 01:00:00 17.5 18 Sudeste 31 Sudeste 0 -- -- 57
2020-05-08 00:00:00 18.6 15 Sudeste 25 Sudeste 0 -- -- 56
2020-05-07 23:00:00 21.9 10 Sudeste 38 Sur 0 -- -- 50
2020-05-07 22:00:00 21.5 12 Sur 29 Sudoeste 0 -- -- 52
2020-05-07 21:00:00 23.3 14 Sur 35 Sur 0 -- -- 47
2020-05-07 20:00:00 24.9 14 Sur 34 Sur 0 -- -- 40
2020-05-07 19:00:00 26.1 18 Sudeste 38 Sur 0 -- -- 41
2020-05-07 18:00:00 27.2 24 Sudeste 43 Sudeste 0 -- -- 39
2020-05-07 17:00:00 27.5 24 Sudeste 39 Sudeste 0 -- -- 42
2020-05-07 16:00:00 28.6 19 Sur 32 Sur 0 -- -- 39
2020-05-07 15:00:00 27.3 19 Sudeste 36 Sudeste 0 -- -- 40
2020-05-07 14:00:00 26.2 19 Sur 31 Sur 0 -- -- 44
2020-05-07 13:00:00 25.9 18 Sudeste 30 Sudeste 0 -- -- 44
2020-05-07 12:00:00 25.2 15 Sudeste 23 Sudeste 0 -- -- 46
2020-05-07 11:00:00 23.6 5 Sudoeste 14 Oeste 0 -- -- 51
2020-05-07 10:00:00 21.4 6 Oeste 15 Oeste 0 -- -- 57
2020-05-07 09:00:00 17.8 5 Sudoeste 18 Sur 0 -- -- 68
2020-05-07 08:00:00 17.7 10 Sur 18 Sudoeste 0 -- -- 67
2020-05-07 07:00:00 15.7 5 Sur 24 Sur 0 -- -- 74
2020-05-07 06:00:00 15 8 Sur 15 Sur 0 -- -- 75
2020-05-07 05:00:00 11.4 3 Sur 12 Sur 0 -- -- 84
2020-05-07 04:00:00 11.9 4 Sudoeste 8 Sudoeste 0 -- -- 73
2020-05-07 03:00:00 12.7 5 Sur 9 Sudoeste 0 -- -- 69
2020-05-07 02:00:00 12.9 7 Sur 10 Sur 0 -- -- 68
2020-05-07 01:00:00 12.3 4 Sudoeste 6 Sudoeste 0 -- -- 71
2020-05-07 00:00:00 13.9 3 Sudoeste 11 Sudoeste 0 -- -- 64
2020-05-06 23:00:00 14.4 3 Sudoeste 10 Sudoeste 0 -- -- 64
2020-05-06 22:00:00 16.4 5 Sur 8 Sur 0 -- -- 57
2020-05-06 21:00:00 20.8 3 Norte 13 Norte 0 -- -- 45
2020-05-06 20:00:00 25.6 8 Norte 15 Norte 0 -- -- 32
2020-05-06 19:00:00 27.1 8 Nordeste 18 Norte 0 -- -- 28
2020-05-06 18:00:00 28 8 Noroeste 20 Norte 0 -- -- 31
2020-05-06 17:00:00 27.6 8 Norte 21 Noroeste 0 -- -- 31
2020-05-06 16:00:00 27.6 5 Noroeste 32 Noroeste 0 -- -- 31
2020-05-06 15:00:00 27.2 12 Noroeste 24 Oeste 0 -- -- 33
2020-05-06 14:00:00 26.7 6 Nordeste 18 Norte 0 -- -- 35
2020-05-06 13:00:00 25.5 8 Noroeste 17 Noroeste 0 -- -- 42
2020-05-06 12:00:00 23.2 6 Nordeste 16 Norte 0 -- -- 49
2020-05-06 11:00:00 21.9 4 Noroeste 12 Noroeste 0 -- -- 49
2020-05-06 10:00:00 20.1 2 Sur 9 Sudoeste 0 -- -- 55
2020-05-06 09:00:00 17.8 0 Calma 4 Sur 0 -- -- 67
2020-05-06 08:00:00 10.3 6 Sur 8 Sudoeste 0 -- -- 86
2020-05-06 07:00:00 7.9 4 Sur 7 Sudoeste 0 -- -- 90
2020-05-06 06:00:00 7.9 3 Sudoeste 8 Sudoeste 0 -- -- 90
2020-05-06 05:00:00 8.9 3 Sudoeste 6 Sudoeste 0 -- -- 89
2020-05-06 04:00:00 11.1 5 Sur 9 Sur 0 -- -- 85
2020-05-06 03:00:00 11.5 2 Sur 9 Sudoeste 0 -- -- 79
2020-05-06 02:00:00 12.5 6 Sudoeste 9 Sudoeste 0 -- -- 79
2020-05-06 01:00:00 13.6 5 Sur 7 Sur 0 -- -- 75
2020-05-06 00:00:00 13.8 0 Calma 3 Nordeste 0 -- -- 77
2020-05-05 23:00:00 15.1 0 Calma 7 Sur 0 -- -- 73
2020-05-05 22:00:00 17.3 3 Sur 9 Sudeste 0 -- -- 63
2020-05-05 21:00:00 23.4 4 Sudeste 15 Este 0 -- -- 42
2020-05-05 20:00:00 25.4 9 Nordeste 20 Este 0 -- -- 36
2020-05-05 19:00:00 26.6 4 Oeste 12 Norte 0 -- -- 33
2020-05-05 18:00:00 26.7 6 Norte 24 Este 0 -- -- 30
2020-05-05 17:00:00 26.3 10 Nordeste 20 Norte 0 -- -- 35
2020-05-05 16:00:00 26.6 6 Noroeste 22 Noroeste 0 -- -- 36
2020-05-05 15:00:00 26.1 6 Noroeste 26 Oeste 0 -- -- 38
2020-05-05 14:00:00 25.2 12 Noroeste 28 Noroeste 0 -- -- 42
2020-05-05 13:00:00 24.5 13 Noroeste 27 Noroeste 0 -- -- 44
2020-05-05 12:00:00 24.6 13 Oeste 27 Noroeste 0 -- -- 49
2020-05-05 11:00:00 23 9 Noroeste 17 Noroeste 0 -- -- 59
2020-05-05 10:00:00 20.8 6 Noroeste 24 Oeste 0 -- -- 64
2020-05-05 09:00:00 19.5 7 Oeste 16 Noroeste 0 -- -- 69
2020-05-05 08:00:00 13.2 0 Calma 9 Sudoeste 0 -- -- 90
2020-05-05 07:00:00 12.6 8 Sudoeste 10 Sudoeste 0 -- -- 89
2020-05-05 06:00:00 13.3 4 Sudoeste 6 Sudoeste 0 -- -- 87
2020-05-05 05:00:00 14 4 Sudoeste 7 Sudoeste 0 -- -- 82
2020-05-05 04:00:00 14.1 0 Calma 9 Sudeste 0 -- -- 80
2020-05-05 03:00:00 16.6 3 Sudeste 12 Sudeste 0 -- -- 72
2020-05-05 02:00:00 19.4 9 Sur 24 Sudeste 0 -- -- 61
2020-05-05 01:00:00 19.4 9 Sur 26 Sudeste 0 -- -- 64
2020-05-05 00:00:00 21.2 16 Sudeste 35 Sur 0 -- -- 58
2020-05-04 23:00:00 21.3 17 Sudeste 44 Sur 0 -- -- 60
2020-05-04 22:00:00 21.7 30 Sudeste 66 Sudeste 0 -- -- 61
2020-05-04 21:00:00 22.9 24 Sudeste 46 Sudeste 0 -- -- 62
2020-05-04 20:00:00 25.1 17 Sudeste 43 Sudeste 0 -- -- 50
2020-05-04 19:00:00 26.5 20 Sudeste 40 Sudeste 0 -- -- 47
2020-05-04 18:00:00 27.7 19 Sur 35 Sur 0 -- -- 49
2020-05-04 17:00:00 27.3 19 Sudeste 39 Sudeste 0 -- -- 48
2020-05-04 16:00:00 27.8 22 Sudeste 38 Sur 0 -- -- 48
2020-05-04 15:00:00 28.5 19 Sur 35 Sudeste 0 -- -- 44
2020-05-04 14:00:00 27.2 19 Sudeste 37 Sur 0 -- -- 48
2020-05-04 13:00:00 25.7 22 Sudeste 37 Sudeste 0 -- -- 49
2020-05-04 12:00:00 25.1 17 Sudeste 28 Sudeste 0 -- -- 51
2020-05-04 11:00:00 23.2 16 Sudeste 35 Sudeste 0 -- -- 54
2020-05-04 10:00:00 22.1 6 Oeste 22 Sur 0 -- -- 56
2020-05-04 09:00:00 20.6 4 Sudeste 18 Sur 0 -- -- 60
2020-05-04 08:00:00 15.7 2 Sudeste 15 Sudoeste 0 -- -- 79
2020-05-04 07:00:00 16.8 9 Sudoeste 15 Sur 0 -- -- 70
2020-05-04 06:00:00 17.2 2 Sur 26 Sudeste 0 -- -- 71
2020-05-04 05:00:00 17.5 7 Sudeste 21 Sudeste 0 -- -- 73
2020-05-04 04:00:00 16.8 8 Sudoeste 15 Sudoeste 0 -- -- 76
2020-05-04 03:00:00 17.5 5 Sur 16 Sudoeste 0 -- -- 78
2020-05-04 02:00:00 18.4 8 Sudoeste 24 Sur 0 -- -- 75
2020-05-04 01:00:00 16.2 2 Oeste 5 Oeste 0 -- -- 75
2020-05-04 00:00:00 17.5 2 Noroeste 8 Sudoeste 0 -- -- 69
2020-05-03 23:00:00 19.8 4 Oeste 19 Sur 0 -- -- 61
2020-05-03 22:00:00 23.2 14 Sur 24 Sur 0 -- -- 51
2020-05-03 21:00:00 24.4 12 Sudeste 25 Sur 0 -- -- 49
2020-05-03 20:00:00 26.5 14 Sudeste 25 Este 0 -- -- 44
2020-05-03 19:00:00 28.2 11 Sudeste 19 Sudeste 0 -- -- 39
2020-05-03 18:00:00 28.9 4 Sur 14 Norte 0 -- -- 34
2020-05-03 17:00:00 28.7 5 Nordeste 18 Norte 0 -- -- 36
2020-05-03 16:00:00 28.2 6 Oeste 33 Noroeste 0 -- -- 41
2020-05-03 15:00:00 28 5 Oeste 12 Norte 0 -- -- 42
2020-05-03 14:00:00 26.3 6 Noroeste 16 Nordeste 0 -- -- 41
2020-05-03 13:00:00 25.5 6 Noroeste 13 Nordeste 0 -- -- 45
2020-05-03 12:00:00 23.4 6 Norte 14 Noroeste 0 -- -- 51
2020-05-03 11:00:00 21.6 8 Norte 14 Noroeste 0 -- -- 56
2020-05-03 10:00:00 18.5 3 Sudoeste 9 Sudoeste 0 -- -- 68
2020-05-03 09:00:00 16.2 4 Sudoeste 8 Sur 0 -- -- 79
2020-05-03 08:00:00 10.7 6 Sudoeste 9 Sudoeste 0 -- -- 94
2020-05-03 07:00:00 9.4 6 Sudoeste 8 Sudoeste 0 -- -- 94
2020-05-03 06:00:00 10.2 4 Sur 8 Sudoeste 0 -- -- 93
2020-05-03 05:00:00 11 5 Sur 9 Sudoeste 0 -- -- 91
2020-05-03 04:00:00 11.8 4 Sur 8 Sur 0 -- -- 91
2020-05-03 03:00:00 12.8 3 Sudoeste 9 Sudoeste 0 -- -- 90
2020-05-03 02:00:00 12.6 5 Sur 11 Sur 0 -- -- 89
2020-05-03 01:00:00 12.2 3 Oeste 10 Sudoeste 0 -- -- 90
2020-05-03 00:00:00 13.9 5 Sur 9 Sudoeste 0 -- -- 86
2020-05-02 23:00:00 15.1 0 Calma 5 Sudoeste 0 -- -- 77
2020-05-02 22:00:00 18.4 0 Calma 14 Norte 0 -- -- 70
2020-05-02 21:00:00 20.1 4 Noroeste 26 Nordeste 0 -- -- 65
2020-05-02 20:00:00 23.4 16 Nordeste 28 Norte 0 -- -- 54
2020-05-02 19:00:00 25 13 Nordeste 27 Norte 0 -- -- 48
2020-05-02 18:00:00 26.2 13 Norte 32 Nordeste 0 -- -- 44
2020-05-02 17:00:00 25.8 7 Norte 26 Noroeste 0 -- -- 45
2020-05-02 16:00:00 26.3 8 Norte 30 Noroeste 0 -- -- 47
2020-05-02 15:00:00 25.7 13 Noroeste 25 Noroeste 0 -- -- 48
2020-05-02 14:00:00 24.2 10 Norte 28 Noroeste 0 -- -- 52
2020-05-02 13:00:00 23.2 15 Norte 30 Noroeste 0 -- -- 55
2020-05-02 12:00:00 21.9 13 Noroeste 26 Noroeste 0 -- -- 61
2020-05-02 11:00:00 21.3 11 Norte 22 Norte 0 -- -- 66
2020-05-02 10:00:00 19.3 10 Noroeste 20 Noroeste 0 -- -- 72
2020-05-02 09:00:00 17.6 6 Norte 13 Norte 0 -- -- 81
2020-05-02 08:00:00 12.1 0 Calma 5 Sur 0 -- -- 96
2020-05-02 07:00:00 11.8 4 Sur 8 Sudoeste 0 -- -- 96
2020-05-02 06:00:00 12.4 4 Sur 9 Sudoeste 0 -- -- 96
2020-05-02 05:00:00 12.8 6 Sudoeste 8 Sur 0 -- -- 96
2020-05-02 04:00:00 12.9 5 Sudoeste 11 Sudoeste 0 -- -- 95
2020-05-02 03:00:00 13.5 5 Sudoeste 9 Sudoeste 0 -- -- 93
2020-05-02 02:00:00 14 6 Sudoeste 10 Sudoeste 0 -- -- 91
2020-05-02 01:00:00 15.4 7 Noroeste 14 Norte 0 -- -- 88
2020-05-02 00:00:00 16.4 4 Norte 11 Norte 0.2 -- -- 89
2020-05-01 23:00:00 16.5 3 Sur 8 Sur 0.2 -- -- 89
2020-05-01 22:00:00 17.1 4 Sudeste 41 Nordeste 0 -- -- 84
2020-05-01 21:00:00 20.2 4 Nordeste 22 Noroeste 0 -- -- 69
2020-05-01 20:00:00 22.6 17 Noroeste 30 Noroeste 0 -- -- 55
2020-05-01 19:00:00 24.1 18 Noroeste 41 Noroeste 0 -- -- 51
2020-05-01 18:00:00 25.1 21 Noroeste 40 Norte 0 -- -- 48
2020-05-01 17:00:00 24.8 26 Noroeste 43 Norte 0 -- -- 49
2020-05-01 16:00:00 24.9 23 Noroeste 41 Noroeste 0 -- -- 50
2020-05-01 15:00:00 23.2 23 Noroeste 41 Noroeste 0 -- -- 51
2020-05-01 14:00:00 22.5 26 Noroeste 41 Noroeste 0 -- -- 55
2020-05-01 13:00:00 22.2 22 Noroeste 44 Noroeste 0 -- -- 56
2020-05-01 12:00:00 21.6 27 Noroeste 42 Noroeste 0 -- -- 56
2020-05-01 11:00:00 20.3 26 Noroeste 44 Oeste 0 -- -- 57
2020-05-01 10:00:00 18.1 22 Noroeste 33 Noroeste 0 -- -- 63
2020-05-01 09:00:00 16.6 17 Noroeste 27 Noroeste 0 -- -- 69
2020-05-01 08:00:00 12.6 2 Sudoeste 12 Sudoeste 0 -- -- 82
2020-05-01 07:00:00 10.5 3 Sur 10 Sur 0 -- -- 88
2020-05-01 06:00:00 10.7 8 Sudoeste 11 Sudoeste 0 -- -- 86
2020-05-01 05:00:00 11.1 7 Sudoeste 12 Sudoeste 0 -- -- 84
2020-05-01 04:00:00 12.5 7 Sudoeste 14 Noroeste 0 -- -- 78
2020-05-01 03:00:00 12.8 8 Oeste 13 Noroeste 0 -- -- 75
2020-05-01 02:00:00 11.8 0 Calma 7 Sur 0 -- -- 78
2020-05-01 01:00:00 13.7 2 Sur 22 Noroeste 0 -- -- 69
2020-05-01 00:00:00 15.3 14 Noroeste 26 Noroeste 0 -- -- 63
2020-04-30 23:00:00 14.9 13 Noroeste 25 Noroeste 0 -- -- 63
2020-04-30 22:00:00 15.2 12 Noroeste 22 Noroeste 0 -- -- 60
2020-04-30 21:00:00 15.9 9 Noroeste 33 Norte 0 -- -- 58
2020-04-30 20:00:00 19.4 15 Noroeste 38 Noroeste 0 -- -- 47
2020-04-30 19:00:00 19.8 15 Noroeste 33 Noroeste 0 -- -- 46
2020-04-30 18:00:00 20.8 17 Noroeste 37 Norte 0 -- -- 43
2020-04-30 17:00:00 21.7 18 Noroeste 41 Noroeste 0 -- -- 42
2020-04-30 16:00:00 20.5 20 Noroeste 40 Noroeste 0 -- -- 44
2020-04-30 15:00:00 21.5 24 Norte 43 Norte 0 -- -- 42
2020-04-30 14:00:00 20.3 24 Norte 45 Noroeste 0 -- -- 43
2020-04-30 13:00:00 19.4 16 Noroeste 31 Norte 0 -- -- 46
2020-04-30 12:00:00 18.4 19 Noroeste 32 Norte 0 -- -- 50
2020-04-30 11:00:00 16.4 16 Noroeste 28 Noroeste 0 -- -- 54
2020-04-30 10:00:00 16.5 17 Noroeste 28 Noroeste 0 -- -- 55
2020-04-30 09:00:00 14.4 12 Noroeste 20 Noroeste 0 -- -- 65
2020-04-30 08:00:00 12.9 8 Oeste 18 Oeste 0 -- -- 72
2020-04-30 07:00:00 12.9 10 Oeste 22 Noroeste 0 -- -- 76
2020-04-30 06:00:00 13.5 13 Noroeste 21 Oeste 0 -- -- 74
2020-04-30 05:00:00 13 9 Oeste 15 Oeste 0 -- -- 76
2020-04-30 04:00:00 11.9 8 Sudoeste 18 Oeste 0 -- -- 78
2020-04-30 03:00:00 12.3 12 Oeste 16 Oeste 0 -- -- 75
2020-04-30 02:00:00 13.1 9 Oeste 13 Oeste 0 -- -- 71
2020-04-30 01:00:00 11.7 3 Sur 10 Sudoeste 0 -- -- 82
2020-04-30 00:00:00 13.2 5 Sudoeste 9 Sudoeste 0 -- -- 76
2020-04-29 23:00:00 14.4 6 Noroeste 24 Norte 0 -- -- 68
2020-04-29 22:00:00 16.6 8 Norte 28 Noroeste 0 -- -- 63
2020-04-29 21:00:00 17.8 5 Sudoeste 7 Sudoeste 0 -- -- 64
2020-04-29 20:00:00 19.2 3 Oeste 14 Noroeste 0 -- -- 51
2020-04-29 19:00:00 21.6 9 Norte 22 Noroeste 0 -- -- 44
2020-04-29 18:00:00 21.7 10 Norte 22 Norte 0 -- -- 43
2020-04-29 17:00:00 21.3 8 Nordeste 22 Norte 0 -- -- 42
2020-04-29 16:00:00 21.4 11 Norte 32 Oeste 0 -- -- 43
2020-04-29 15:00:00 21 9 Sudoeste 25 Oeste 0 -- -- 43
2020-04-29 14:00:00 20.3 13 Noroeste 25 Noroeste 0 -- -- 44
2020-04-29 13:00:00 18.8 14 Noroeste 24 Noroeste 0 -- -- 48
2020-04-29 12:00:00 17.6 10 Noroeste 23 Noroeste 0 -- -- 52
2020-04-29 11:00:00 16.5 10 Noroeste 24 Noroeste 0 -- -- 53
2020-04-29 10:00:00 13.5 11 Oeste 17 Oeste 0 -- -- 66
2020-04-29 09:00:00 12 4 Sudoeste 11 Sur 0 -- -- 76
2020-04-29 08:00:00 8.1 7 Sur 11 Sur 0 -- -- 88
2020-04-29 07:00:00 5.4 4 Sur 6 Sudoeste 0 -- -- 93
2020-04-29 06:00:00 5.9 3 Sudoeste 9 Sudoeste 0 -- -- 92
2020-04-29 05:00:00 7 5 Sur 10 Sudoeste 0 -- -- 90
2020-04-29 04:00:00 6.2 5 Sur 9 Sur 0 -- -- 92
2020-04-29 03:00:00 6.7 5 Sudoeste 8 Sudoeste 0 -- -- 91
2020-04-29 02:00:00 8.5 4 Sur 10 Sudoeste 0 -- -- 84
2020-04-29 01:00:00 7.6 4 Sudoeste 9 Sudoeste 0 -- -- 86
2020-04-29 00:00:00 8.5 6 Sur 10 Sudoeste 0 -- -- 86
2020-04-28 23:00:00 9.8 3 Sudoeste 8 Sur 0 -- -- 82
2020-04-28 22:00:00 12.1 5 Sudoeste 7 Sudoeste 0 -- -- 72
2020-04-28 21:00:00 13.5 4 Norte 20 Noroeste 0 -- -- 65
2020-04-28 20:00:00 17.7 14 Norte 28 Noroeste 0 -- -- 45
2020-04-28 19:00:00 19.2 16 Norte 37 Norte 0 -- -- 41
2020-04-28 18:00:00 20.2 16 Noroeste 42 Noroeste 0 -- -- 41
2020-04-28 17:00:00 19.4 19 Noroeste 33 Noroeste 0 -- -- 37
2020-04-28 16:00:00 18.8 19 Noroeste 34 Noroeste 0 -- -- 44
2020-04-28 15:00:00 19.3 17 Norte 36 Norte 0 -- -- 47
2020-04-28 14:00:00 18.8 17 Noroeste 34 Norte 0 -- -- 46
2020-04-28 13:00:00 17.7 20 Norte 37 Noroeste 0 -- -- 56
2020-04-28 12:00:00 16.7 13 Noroeste 27 Noroeste 0 -- -- 58
2020-04-28 11:00:00 15 9 Oeste 20 Noroeste 0 -- -- 75
2020-04-28 10:00:00 14.7 13 Norte 21 Noroeste 0 -- -- 75
2020-04-28 09:00:00 11.9 4 Oeste 7 Oeste 0 -- -- 89
2020-04-28 08:00:00 8.5 5 Sur 7 Sur 0 -- -- 98
2020-04-28 07:00:00 7.9 3 Sur 9 Sur 0 -- -- 96
2020-04-28 06:00:00 7.5 5 Sur 9 Sur 0 -- -- 98
2020-04-28 05:00:00 8 5 Sudoeste 9 Sudoeste 0 -- -- 95
2020-04-28 04:00:00 8.5 3 Sudoeste 9 Sur 0 -- -- 94
2020-04-28 03:00:00 8.5 3 Oeste 8 Sudoeste 0 -- -- 93
2020-04-28 02:00:00 11.1 4 Norte 13 Noroeste 0 -- -- 88
2020-04-28 01:00:00 10.6 9 Oeste 15 Oeste 0 -- -- 93
2020-04-28 00:00:00 11.1 3 Sudoeste 7 Sudoeste 0 -- -- 91
2020-04-27 23:00:00 12.6 0 Calma 17 Este 0 -- -- 85
2020-04-27 22:00:00 13.3 7 Este 18 Sudeste 0 -- -- 82
2020-04-27 21:00:00 13.8 4 Sudeste 28 Norte 0.8 -- -- 79
2020-04-27 20:00:00 17.4 7 Sudoeste 22 Oeste 0 -- -- 65
2020-04-27 19:00:00 20.4 13 Noroeste 20 Noroeste 0 -- -- 48
2020-04-27 18:00:00 19.6 11 Noroeste 32 Noroeste 0 -- -- 52
2020-04-27 17:00:00 20.3 16 Noroeste 26 Noroeste 0 -- -- 44
2020-04-27 16:00:00 22.6 19 Noroeste 31 Noroeste 0 -- -- 40
2020-04-27 15:00:00 20.3 14 Oeste 27 Oeste 0 -- -- 52
2020-04-27 14:00:00 19.6 15 Noroeste 25 Oeste 0 -- -- 64
2020-04-27 13:00:00 18.4 13 Oeste 25 Oeste 0 -- -- 65
2020-04-27 12:00:00 15.5 9 Sudoeste 25 Oeste 0 -- -- 81
2020-04-27 11:00:00 15.5 13 Oeste 21 Oeste 0 -- -- 83
2020-04-27 10:00:00 14 8 Sudoeste 17 Sudoeste 0.6 -- -- 89
2020-04-27 09:00:00 13.6 10 Sudoeste 17 Sudoeste 0.8 -- -- 94
2020-04-27 08:00:00 13.4 6 Sudoeste 14 Sur 0 -- -- 93
2020-04-27 07:00:00 13.4 3 Sudoeste 10 Sur 0.4 -- -- 93
2020-04-27 06:00:00 13.2 3 Sudoeste 6 Sur 0 -- -- 93
2020-04-27 05:00:00 13.7 5 Sur 8 Sur 0 -- -- 90
2020-04-27 04:00:00 14.2 2 Este 8 Sur 0 -- -- 87
2020-04-27 03:00:00 13.9 4 Sur 15 Sur 0 -- -- 91
2020-04-27 02:00:00 14.3 4 Sur 14 Sudeste 0 -- -- 88
2020-04-27 01:00:00 14.4 6 Sudeste 16 Sudeste 0 -- -- 89
2020-04-27 00:00:00 14.2 3 Sudoeste 21 Sur 0 -- -- 90